Time;durP1;ratioP1;P1;durP2;ratioP2;P2;SDS_P1;SDS_P2;PMS_P1;PMS_P2;Temp;Humidity;BMP_temperature;BMP_pressure;BME280_temperature;BME280_humidity;BME280_pressure;Samples;Min_cycle;Max_cycle;Signal;HPM_P1;HPM_P2
2021/03/07 00:01:24;;;;;;;65.10;29.45;;;;;;;2.10;52.62;100070.41;251201;1158;101156;-71
2021/03/07 00:06:27;;;;;;;58.20;26.25;;;;;;;2.07;52.36;100072.20;251622;1151;101060;-78
2021/03/07 00:11:29;;;;;;;59.10;26.83;;;;;;;2.09;52.70;100059.94;249323;1150;103258;-80
2021/03/07 00:16:31;;;;;;;59.25;26.95;;;;;;;2.08;52.95;100060.84;250522;1153;101543;-71
2021/03/07 00:21:33;;;;;;;58.60;25.87;;;;;;;2.06;52.74;100057.34;250883;1159;101165;-71
2021/03/07 00:26:35;;;;;;;52.60;24.50;;;;;;;1.97;52.54;100045.20;251531;1150;101043;-72
2021/03/07 00:31:38;;;;;;;53.10;24.63;;;;;;;1.89;52.54;100036.52;251254;1151;102466;-79
2021/03/07 00:36:40;;;;;;;51.60;24.60;;;;;;;1.93;53.24;100030.34;250680;1151;103079;-77
2021/03/07 00:41:43;;;;;;;54.53;22.27;;;;;;;1.88;52.81;100005.92;251584;1157;101121;-76
2021/03/07 00:46:46;;;;;;;52.15;23.70;;;;;;;1.88;52.63;99998.92;251401;1150;101172;-77
2021/03/07 00:51:49;;;;;;;46.60;21.95;;;;;;;1.94;52.95;99992.74;250658;1158;101066;-70
2021/03/07 00:56:55;;;;;;;45.95;21.20;;;;;;;1.91;53.00;99982.27;250917;1151;100939;-78
2021/03/07 01:01:57;;;;;;;47.13;22.53;;;;;;;1.82;52.71;99980.61;251590;1157;101963;-78
2021/03/07 01:06:59;;;;;;;45.83;22.73;;;;;;;1.83;52.55;99968.35;249972;1152;103164;-71
2021/03/07 01:12:03;;;;;;;49.43;22.50;;;;;;;1.86;53.07;99956.06;250954;1158;101377;-71
2021/03/07 01:17:05;;;;;;;46.10;21.10;;;;;;;1.82;52.70;99949.12;251161;1150;101275;-78
2021/03/07 01:22:08;;;;;;;51.30;21.50;;;;;;;1.82;53.05;99938.63;250721;1151;101805;-72
2021/03/07 01:27:10;;;;;;;42.00;21.35;;;;;;;1.77;53.21;99922.08;251013;1151;102407;-71
2021/03/07 01:32:12;;;;;;;41.95;21.15;;;;;;;1.75;52.78;99909.86;251475;1151;101144;-71
2021/03/07 01:37:15;;;;;;;42.05;19.20;;;;;;;1.69;52.51;99910.79;251120;1152;101388;-79
2021/03/07 01:42:17;;;;;;;38.20;19.67;;;;;;;1.67;52.76;99898.60;251793;1150;101244;-79
2021/03/07 01:47:29;;;;;;;46.20;19.80;;;;;;;1.63;53.03;99896.02;251487;1150;101301;-77
2021/03/07 01:52:31;;;;;;;41.77;19.80;;;;;;;1.59;52.72;99893.42;250484;1152;101964;-72
2021/03/07 01:57:35;;;;;;;50.47;23.13;;;;;;;1.59;53.31;99888.17;251536;1151;101663;-78
2021/03/07 02:02:38;;;;;;;47.93;24.00;;;;;;;1.58;53.04;99887.31;251055;1157;101193;-72
2021/03/07 02:07:41;;;;;;;54.90;24.57;;;;;;;1.56;53.02;99893.45;251788;1149;101233;-72
2021/03/07 02:12:45;;;;;;;50.73;23.77;;;;;;;1.54;53.58;99885.63;249473;1151;103287;-71
2021/03/07 02:17:48;;;;;;;55.50;24.50;;;;;;;1.52;53.55;99882.13;251086;1152;101439;-70
2021/03/07 02:22:58;;;;;;;53.27;23.43;;;;;;;1.50;53.53;99889.17;251111;1152;103063;-71
2021/03/07 02:28:00;;;;;;;47.58;22.88;;;;;;;1.51;53.63;99893.52;251766;1151;101673;-72
2021/03/07 02:33:14;;;;;;;43.17;20.20;;;;;;;1.49;53.49;99882.16;251540;1157;101606;-78
2021/03/07 02:38:19;;;;;;;41.70;23.00;;;;;;;1.45;53.93;99877.84;251378;1150;101043;-78
2021/03/07 02:43:23;;;;;;;43.73;21.20;;;;;;;1.40;53.82;99866.56;251008;1158;101254;-78
2021/03/07 02:48:27;;;;;;;38.40;19.10;;;;;;;1.38;53.49;99873.56;250431;1152;103088;-79
2021/03/07 02:53:33;;;;;;;37.83;18.23;;;;;;;1.41;53.58;99868.28;251047;1158;101155;-79
2021/03/07 02:58:39;;;;;;;36.70;17.10;;;;;;;1.42;53.48;99856.90;251615;1151;101750;-79
2021/03/07 03:03:43;;;;;;;36.80;17.00;;;;;;;1.42;53.49;99855.14;251729;1157;101063;-76
2021/03/07 03:08:50;;;;;;;35.57;16.83;;;;;;;1.45;54.01;99850.76;251280;1151;101405;-78
2021/03/07 03:13:53;;;;;;;29.60;16.00;;;;;;;1.43;53.51;99856.03;251563;1157;101055;-71
2021/03/07 03:18:57;;;;;;;30.50;15.37;;;;;;;1.43;53.61;99853.41;251005;1153;102129;-71
2021/03/07 03:24:00;;;;;;;28.63;14.20;;;;;;;1.45;54.03;99858.63;251057;1156;101353;-78
2021/03/07 03:29:04;;;;;;;30.00;14.50;;;;;;;1.42;53.63;99851.66;251100;1152;101071;-78
2021/03/07 03:34:07;;;;;;;34.50;15.40;;;;;;;1.41;54.00;99858.66;251199;1158;101534;-78
2021/03/07 03:39:17;;;;;;;29.85;15.55;;;;;;;1.44;53.95;99855.14;251315;1152;101208;-71
2021/03/07 03:44:23;;;;;;;27.75;13.50;;;;;;;1.56;53.70;99848.86;251087;1158;101038;-71
2021/03/07 03:49:31;;;;;;;29.03;15.28;;;;;;;1.59;53.99;99852.31;251055;1152;101103;-71
2021/03/07 03:54:41;;;;;;;29.70;14.60;;;;;;;1.59;53.64;99854.08;251086;1151;101147;-71
2021/03/07 03:59:46;;;;;;;34.15;14.60;;;;;;;1.56;53.42;99856.73;251405;1151;101792;-78
2021/03/07 04:04:49;;;;;;;;;;;;;;;1.53;53.37;99857.66;251101;1158;101238;-79
2021/03/07 04:09:54;;;;;;;27.10;13.05;;;;;;;1.47;53.54;99849.00;251602;1150;114426;-78
2021/03/07 04:14:58;;;;;;;29.10;14.50;;;;;;;1.44;53.46;99847.27;251545;1157;101146;-70
2021/03/07 04:20:02;;;;;;;28.00;13.70;;;;;;;1.45;53.33;99833.27;250987;1153;101676;-78
2021/03/07 04:25:07;;;;;;;31.53;14.90;;;;;;;1.45;53.90;99830.64;251170;1151;101810;-71
2021/03/07 04:30:11;;;;;;;30.28;14.85;;;;;;;1.47;53.96;99825.39;251009;1152;101149;-78
2021/03/07 04:35:13;;;;;;;30.20;14.40;;;;;;;1.49;53.50;99818.36;251945;1157;102201;-78
2021/03/07 04:40:15;;;;;;;29.83;14.48;;;;;;;1.45;53.49;99812.28;251182;1150;101116;-77
2021/03/07 04:45:18;;;;;;;28.65;14.50;;;;;;;1.45;53.97;99800.93;251094;1158;101297;-70
2021/03/07 04:50:20;;;;;;;30.60;15.95;;;;;;;1.46;53.75;99786.92;250896;1151;101426;-77
2021/03/07 04:55:22;;;;;;;31.90;14.63;;;;;;;1.40;53.67;99783.50;251099;1157;102099;-78
2021/03/07 05:00:25;;;;;;;29.60;14.90;;;;;;;1.35;53.94;99769.57;250978;1153;102019;-77
2021/03/07 05:05:27;;;;;;;30.30;15.10;;;;;;;1.41;54.06;99766.02;250899;1150;103197;-77
2021/03/07 05:10:29;;;;;;;24.60;12.55;;;;;;;1.41;53.71;99768.64;251229;1150;101379;-77
2021/03/07 05:15:31;;;;;;;24.85;11.85;;;;;;;1.41;53.65;99766.88;249948;1151;103174;-78
2021/03/07 05:20:33;;;;;;;23.97;12.47;;;;;;;1.41;53.41;99766.02;251317;1150;100956;-79
2021/03/07 05:25:35;;;;;;;19.33;10.47;;;;;;;1.35;53.98;99769.57;251020;1158;101105;-71
2021/03/07 05:30:37;;;;;;;23.30;12.50;;;;;;;1.32;53.37;99768.75;252073;1150;100874;-77
2021/03/07 05:35:39;;;;;;;26.40;12.40;;;;;;;1.37;53.61;99749.45;252075;1157;101037;-78
2021/03/07 05:40:41;;;;;;;22.50;11.10;;;;;;;1.46;53.61;99742.34;251791;1151;101261;-77
2021/03/07 05:45:45;;;;;;;19.45;10.45;;;;;;;1.41;53.52;99731.92;250485;1151;103216;-77
2021/03/07 05:50:48;;;;;;;19.95;11.05;;;;;;;1.37;53.40;99738.97;251484;1151;102199;-78
2021/03/07 05:55:51;;;;;;;23.50;12.45;;;;;;;1.36;53.72;99737.23;251349;1150;102185;-70
2021/03/07 06:00:54;;;;;;;22.50;11.90;;;;;;;1.40;53.67;99745.93;251413;1151;101070;-71
2021/03/07 06:05:57;;;;;;;20.80;10.95;;;;;;;1.36;53.84;99734.62;249487;1157;103228;-72
2021/03/07 06:11:00;;;;;;;19.90;11.30;;;;;;;1.37;54.00;99735.48;250486;1150;103114;-72
2021/03/07 06:16:20;;;;;;;20.30;10.80;;;;;;;1.46;53.91;99740.61;251170;1157;101632;-77
2021/03/07 06:21:32;;;;;;;19.00;10.27;;;;;;;1.52;54.12;99739.63;251452;1151;100921;-70
2021/03/07 06:26:34;;;;;;;24.50;12.00;;;;;;;1.60;53.82;99741.27;251410;1157;101262;-69
2021/03/07 06:31:37;;;;;;;20.90;12.30;;;;;;;1.77;54.23;99741.03;251101;1150;101411;-69
2021/03/07 06:36:39;;;;;;;22.27;12.10;;;;;;;1.85;53.64;99741.77;250837;1158;101089;-77
2021/03/07 06:41:41;;;;;;;22.50;11.70;;;;;;;1.91;53.62;99745.20;251062;1151;101200;-76
2021/03/07 06:46:47;;;;;;;27.50;11.70;;;;;;;2.00;53.75;99738.02;251285;1158;101726;-77
2021/03/07 06:51:49;;;;;;;21.40;12.10;;;;;;;2.06;53.62;99721.31;251094;1150;102177;-78
2021/03/07 06:56:51;;;;;;;20.83;11.63;;;;;;;2.14;53.36;99722.08;250985;1158;102069;-77
2021/03/07 07:01:56;;;;;;;26.87;12.73;;;;;;;2.20;53.16;99728.96;250539;1152;100868;-77
2021/03/07 07:07:04;;;;;;;23.40;11.78;;;;;;;2.22;53.31;99720.17;251467;1151;100975;-78
2021/03/07 07:12:28;;;;;;;23.75;11.80;;;;;;;2.27;52.76;99717.45;251026;1149;103014;-77
2021/03/07 07:17:30;;;;;;;19.10;10.60;;;;;;;2.32;53.07;99708.61;251130;1158;101125;-78
2021/03/07 07:22:33;;;;;;;21.60;11.50;;;;;;;2.34;52.98;99708.57;249999;1150;103602;-80
2021/03/07 07:27:35;;;;;;;21.98;10.90;;;;;;;2.39;52.98;99701.49;250874;1151;101177;-80
2021/03/07 07:32:42;;;;;;;20.30;9.55;;;;;;;2.52;53.05;99695.13;250739;1151;103094;-79
2021/03/07 07:37:47;;;;;;;18.80;10.25;;;;;;;2.62;52.54;99695.81;250898;1151;101485;-71
2021/03/07 07:42:57;;;;;;;22.80;9.60;;;;;;;2.68;52.53;99685.16;251520;1150;100994;-72
2021/03/07 07:47:59;;;;;;;16.35;9.55;;;;;;;2.75;52.27;99672.77;250445;1151;103155;-72
2021/03/07 07:53:05;;;;;;;17.90;9.00;;;;;;;2.86;52.47;99670.81;250976;1150;101273;-73
2021/03/07 07:58:07;;;;;;;18.20;8.60;;;;;;;2.91;52.38;99678.59;250947;1151;101085;-73
2021/03/07 08:03:44;;;;;;;17.00;8.60;;;;;;;2.95;52.11;99656.59;251329;1149;101364;-72
2021/03/07 09:25:49;;;;;;;;;;;;;;;3.54;51.92;99563.17;250575;1143;103170;-62
2021/03/07 09:31:00;;;;;;;15.77;8.73;;;;;;;3.62;51.65;99551.59;252116;1145;101458;-62
2021/03/07 09:36:11;;;;;;;14.67;8.70;;;;;;;3.77;51.51;99538.02;252039;1147;114438;-63
2021/03/07 09:41:16;;;;;;;13.55;8.55;;;;;;;3.93;51.24;99525.31;252071;1145;114292;-63
2021/03/07 09:46:19;;;;;;;12.90;8.70;;;;;;;4.13;51.06;99528.26;252014;1145;114147;-65
2021/03/07 09:51:22;;;;;;;15.50;8.97;;;;;;;4.27;50.74;99527.87;252010;1146;114656;-65
2021/03/07 09:56:32;;;;;;;13.70;8.40;;;;;;;4.41;50.51;99515.16;252018;1146;114277;-65
2021/03/07 10:02:08;;;;;;;16.18;8.58;;;;;;;4.54;49.99;99514.80;251996;1152;114098;-65
2021/03/07 10:07:10;;;;;;;12.60;7.93;;;;;;;4.68;50.18;99504.70;252007;1144;118127;-66
2021/03/07 10:12:13;;;;;;;17.70;9.20;;;;;;;4.83;49.83;99498.11;252235;1152;114336;-64
2021/03/07 10:17:15;;;;;;;18.50;9.55;;;;;;;4.98;49.90;99489.70;252030;1148;114402;-63
2021/03/07 10:22:17;;;;;;;15.75;9.28;;;;;;;5.14;49.32;99482.16;252079;1144;114399;-65
2021/03/07 10:27:30;;;;;;;17.83;9.30;;;;;;;5.35;49.28;99473.52;251974;1144;114472;-65
2021/03/07 10:32:33;;;;;;;16.25;8.15;;;;;;;5.58;48.68;99477.17;252141;1152;114806;-64
2021/03/07 10:37:41;;;;;;;12.40;7.60;;;;;;;5.65;47.97;99465.47;252038;1146;114985;-64
2021/03/07 10:42:44;;;;;;;14.73;8.28;;;;;;;5.74;47.99;99462.52;252067;1152;114331;-67
2021/03/07 10:48:10;;;;;;;8.10;5.30;;;;;;;5.89;48.25;99439.96;251984;1146;114624;-64
2021/03/07 10:53:13;;;;;;;12.38;7.53;;;;;;;5.96;48.18;99428.28;252066;1146;114287;-64
2021/03/07 10:58:16;;;;;;;12.55;7.88;;;;;;;6.29;48.77;99435.88;251992;1144;114557;-64
2021/03/07 11:03:18;;;;;;;12.87;6.73;;;;;;;6.69;48.22;99439.59;251852;1152;114537;-63
2021/03/07 11:08:21;;;;;;;9.53;6.10;;;;;;;6.73;47.32;99425.34;251833;1144;173933;-62
2021/03/07 11:13:23;;;;;;;11.63;7.07;;;;;;;6.69;46.36;99392.88;251957;1153;114550;-65
2021/03/07 11:18:26;;;;;;;10.80;6.53;;;;;;;6.73;46.50;99383.88;251944;1144;114592;-65
2021/03/07 11:23:28;;;;;;;12.00;6.45;;;;;;;6.70;46.65;99389.30;251808;1153;114297;-65
2021/03/07 11:28:31;;;;;;;10.60;6.23;;;;;;;6.62;45.22;99384.33;251908;1146;114629;-67
2021/03/07 11:33:33;;;;;;;12.05;6.78;;;;;;;6.64;45.60;99363.95;251929;1153;114777;-65
2021/03/07 11:38:36;;;;;;;17.30;7.20;;;;;;;6.81;45.38;99365.05;251955;1146;114465;-66
2021/03/07 11:43:38;;;;;;;15.73;7.65;;;;;;;6.97;46.32;99338.82;252046;1152;114714;-66
2021/03/07 11:48:40;;;;;;;12.43;7.33;;;;;;;7.03;45.04;99338.53;251980;1145;114414;-70
2021/03/07 11:53:43;;;;;;;12.98;6.85;;;;;;;7.07;44.79;99318.98;252053;1152;115030;-70
2021/03/07 11:58:46;;;;;;;13.60;6.80;;;;;;;7.15;44.66;99323.93;248483;1146;115125;-70
2021/03/07 12:03:48;;;;;;;10.73;6.43;;;;;;;7.31;43.94;99327.63;252005;1153;114539;-71
2021/03/07 12:08:50;;;;;;;10.95;6.03;;;;;;;7.50;44.16;99312.63;251077;1146;114681;-72
2021/03/07 12:13:53;;;;;;;9.75;6.85;;;;;;;7.73;44.87;99292.19;251998;1153;115948;-71
2021/03/07 12:18:55;;;;;;;12.73;7.15;;;;;;;7.93;44.33;99293.91;252204;1146;115343;-70
2021/03/07 12:23:58;;;;;;;9.78;6.43;;;;;;;8.15;44.02;99280.48;252318;1153;114496;-68
2021/03/07 12:29:00;;;;;;;12.80;7.57;;;;;;;8.36;43.93;99276.80;252246;1147;114114;-68
2021/03/07 12:34:03;;;;;;;15.35;6.85;;;;;;;8.47;42.92;99263.89;250708;1153;114819;-66
2021/03/07 12:39:06;;;;;;;11.30;5.90;;;;;;;8.43;42.71;99248.22;252259;1147;114580;-66
2021/03/07 12:44:08;;;;;;;9.80;6.00;;;;;;;8.47;42.49;99244.47;252295;1152;114584;-67
2021/03/07 12:49:10;;;;;;;11.83;5.73;;;;;;;8.34;42.02;99245.98;252266;1145;113982;-66
2021/03/07 12:54:12;;;;;;;10.65;5.83;;;;;;;8.42;42.22;99238.52;252282;1152;114398;-66
2021/03/07 12:59:15;;;;;;;10.68;5.55;;;;;;;8.53;41.92;99231.77;252021;1144;115233;-67
2021/03/07 13:04:17;;;;;;;11.30;6.00;;;;;;;8.70;42.14;99230.91;252065;1152;115115;-67
2021/03/07 13:09:19;;;;;;;7.70;5.17;;;;;;;8.87;41.43;99202.64;251936;1146;114579;-67
2021/03/07 13:14:22;;;;;;;6.55;4.90;;;;;;;8.92;40.76;99193.48;251983;1147;114794;-67
2021/03/07 13:19:24;;;;;;;9.70;5.40;;;;;;;9.06;41.36;99198.05;252050;1144;114676;-66
2021/03/07 13:24:26;;;;;;;8.33;4.93;;;;;;;9.20;40.68;99195.55;251957;1153;114596;-66
2021/03/07 13:29:28;;;;;;;7.88;5.08;;;;;;;9.35;40.46;99175.25;251983;1148;114527;-68
2021/03/07 13:34:31;;;;;;;17.00;5.23;;;;;;;9.45;40.90;99175.61;251984;1153;114446;-66
2021/03/07 13:39:33;;;;;;;9.55;5.23;;;;;;;9.56;39.97;99153.75;251962;1144;114824;-69
2021/03/07 13:44:36;;;;;;;9.43;4.60;;;;;;;9.34;39.71;99151.42;251929;1153;114648;-67
2021/03/07 13:49:38;;;;;;;8.48;4.55;;;;;;;9.17;39.57;99144.38;252033;1146;115108;-68
2021/03/07 13:54:43;;;;;;;7.75;4.60;;;;;;;8.90;39.41;99134.34;252039;1153;114404;-68
2021/03/07 13:59:45;;;;;;;11.20;5.08;;;;;;;8.63;39.27;99123.39;252081;1146;114870;-67
2021/03/07 14:04:48;;;;;;;7.40;4.90;;;;;;;8.37;39.02;99118.55;252112;1145;115547;-70
2021/03/07 14:09:50;;;;;;;8.33;4.43;;;;;;;8.09;39.60;99113.81;252034;1144;114491;-68
2021/03/07 14:14:52;;;;;;;15.05;4.75;;;;;;;7.93;39.38;99106.63;251986;1153;114763;-69
2021/03/07 14:19:55;;;;;;;6.98;4.93;;;;;;;7.86;39.89;99101.72;252033;1153;115390;-68
2021/03/07 14:24:57;;;;;;;8.38;4.80;;;;;;;7.83;40.14;99105.37;251796;1153;114322;-68
2021/03/07 14:29:59;;;;;;;10.25;4.98;;;;;;;7.80;40.04;99102.87;251677;1146;114506;-69
2021/03/07 14:35:02;;;;;;;10.17;5.43;;;;;;;7.73;40.05;99085.56;251954;1153;114768;-68
2021/03/07 14:40:10;;;;;;;9.70;5.33;;;;;;;7.63;39.51;99086.95;251985;1145;115029;-70
2021/03/07 14:45:15;;;;;;;11.53;5.50;;;;;;;7.62;39.76;99072.86;251959;1146;114218;-68
2021/03/07 14:50:19;;;;;;;7.87;5.03;;;;;;;7.67;40.31;99072.62;252021;1146;114950;-68
2021/03/07 14:55:22;;;;;;;8.48;4.20;;;;;;;7.58;40.13;99055.41;252073;1146;114302;-63
2021/03/07 15:00:27;;;;;;;7.50;4.60;;;;;;;7.56;39.71;99065.20;252014;1145;115077;-66
2021/03/07 15:05:29;;;;;;;10.03;4.65;;;;;;;7.50;40.03;99057.56;252070;1148;114356;-65
2021/03/07 15:10:32;;;;;;;7.67;5.40;;;;;;;7.43;39.97;99062.30;251940;1146;116269;-68
2021/03/07 15:15:35;;;;;;;8.80;5.37;;;;;;;7.35;39.68;99049.44;252001;1153;115033;-69
2021/03/07 15:20:38;;;;;;;9.28;4.88;;;;;;;7.37;39.33;99045.85;250788;1145;115263;-70
2021/03/07 15:25:40;;;;;;;8.23;4.98;;;;;;;7.28;39.49;99040.09;251736;1153;115559;-71
2021/03/07 15:30:43;;;;;;;9.00;5.33;;;;;;;7.19;39.30;99037.88;251927;1148;114536;-71
2021/03/07 15:35:45;;;;;;;9.97;5.53;;;;;;;7.20;40.49;99034.32;251976;1153;114494;-70
2021/03/07 15:40:47;;;;;;;10.23;5.08;;;;;;;7.21;40.18;99036.03;251962;1146;114161;-68
2021/03/07 15:45:50;;;;;;;8.35;5.30;;;;;;;7.09;39.57;99026.02;251989;1153;114337;-68
2021/03/07 15:50:53;;;;;;;13.03;6.03;;;;;;;7.02;40.00;99024.60;251955;1146;114506;-68
2021/03/07 15:55:55;;;;;;;10.50;6.03;;;;;;;6.97;39.91;99030.13;252010;1146;114380;-69
2021/03/07 16:00:58;;;;;;;10.80;5.95;;;;;;;6.95;40.54;99034.62;252085;1147;115058;-68
2021/03/07 16:06:01;;;;;;;11.15;6.60;;;;;;;6.95;40.97;99034.62;252020;1145;114634;-70
2021/03/07 16:11:04;;;;;;;10.25;6.55;;;;;;;6.96;40.85;99035.47;252009;1146;115147;-69
2021/03/07 16:16:09;;;;;;;13.10;5.85;;;;;;;6.92;40.94;99028.61;251988;1153;115028;-69
2021/03/07 16:21:11;;;;;;;9.98;5.75;;;;;;;6.91;41.35;99037.49;251905;1144;114536;-67
2021/03/07 16:26:14;;;;;;;10.78;6.18;;;;;;;6.80;41.37;99033.56;252003;1152;115126;-68
2021/03/07 16:31:17;;;;;;;12.43;7.27;;;;;;;6.69;41.13;99038.50;251934;1146;114408;-69
2021/03/07 16:36:21;;;;;;;11.15;6.40;;;;;;;6.63;41.76;99038.78;252042;1152;114537;-69
2021/03/07 16:41:23;;;;;;;13.07;7.57;;;;;;;6.62;41.29;99050.26;250525;1152;114661;-69
2021/03/07 16:46:29;;;;;;;14.23;6.83;;;;;;;6.54;41.85;99050.62;252140;1144;115181;-70
2021/03/07 16:51:32;;;;;;;14.07;7.50;;;;;;;6.51;42.24;99056.04;251886;1146;115617;-74
2021/03/07 16:56:38;;;;;;;14.20;8.00;;;;;;;6.50;41.46;99042.91;251987;1153;114983;-69
2021/03/07 17:01:41;;;;;;;11.63;7.25;;;;;;;6.47;41.73;99054.47;251985;1146;114500;-67
2021/03/07 17:06:43;;;;;;;14.33;7.83;;;;;;;6.41;42.49;99054.73;251850;1152;114826;-70
2021/03/07 17:11:46;;;;;;;15.18;8.43;;;;;;;6.37;42.47;99061.95;251924;1144;114579;-73
2021/03/07 17:16:49;;;;;;;14.75;8.90;;;;;;;6.31;43.00;99067.50;252008;1153;114462;-72
2021/03/07 17:21:51;;;;;;;17.30;9.03;;;;;;;6.23;42.45;99056.42;251867;1145;114574;-73
2021/03/07 17:26:54;;;;;;;16.23;9.20;;;;;;;6.21;43.36;99060.05;251808;1153;114704;-72
2021/03/07 17:32:00;;;;;;;16.27;10.10;;;;;;;6.15;42.84;99062.05;251887;1146;114979;-74
2021/03/07 17:37:03;;;;;;;18.60;10.55;;;;;;;6.10;43.63;99065.81;251982;1153;114660;-72
2021/03/07 17:42:06;;;;;;;22.75;10.75;;;;;;;6.03;43.81;99061.72;252028;1146;114521;-73
2021/03/07 17:47:10;;;;;;;20.48;11.55;;;;;;;5.99;43.35;99062.78;251952;1146;114681;-73
2021/03/07 17:52:12;;;;;;;23.23;11.63;;;;;;;5.99;43.95;99052.22;251920;1146;115103;-73
2021/03/07 17:57:14;;;;;;;20.97;11.47;;;;;;;5.97;44.22;99051.41;251942;1153;114910;-70
2021/03/07 18:02:17;;;;;;;23.55;12.55;;;;;;;5.92;43.67;99057.75;251916;1146;115538;-70
2021/03/07 18:07:20;;;;;;;24.68;13.95;;;;;;;5.87;43.85;99048.27;251981;1153;115618;-71
2021/03/07 18:12:23;;;;;;;21.20;13.05;;;;;;;5.86;44.52;99047.41;251991;1146;114771;-70
2021/03/07 18:17:26;;;;;;;29.00;13.70;;;;;;;5.82;44.08;99055.55;252020;1153;115501;-71
2021/03/07 18:22:29;;;;;;;22.25;13.73;;;;;;;5.74;44.53;99058.52;251912;1145;115110;-71
2021/03/07 18:27:33;;;;;;;22.63;13.47;;;;;;;5.69;44.97;99058.69;252018;1146;114672;-73
2021/03/07 18:32:37;;;;;;;25.15;14.83;;;;;;;5.61;44.98;99052.03;251943;1146;115341;-70
2021/03/07 18:37:40;;;;;;;35.60;19.80;;;;;;;5.52;45.40;99045.34;250162;1153;115079;-69
2021/03/07 18:42:46;;;;;;;28.40;16.03;;;;;;;5.49;45.14;99041.97;252077;1146;115797;-72
2021/03/07 18:47:51;;;;;;;31.35;17.95;;;;;;;5.44;45.51;99048.30;252053;1145;115841;-72
2021/03/07 18:52:55;;;;;;;35.95;19.55;;;;;;;5.41;45.44;99050.20;251982;1145;116234;-71
2021/03/07 18:58:02;;;;;;;36.57;19.30;;;;;;;5.37;45.50;99052.11;250230;1152;114734;-71
2021/03/07 19:03:06;;;;;;;37.40;19.23;;;;;;;5.30;45.81;99050.65;252038;1144;114845;-72
2021/03/07 19:08:24;;;;;;;33.83;19.47;;;;;;;5.24;45.81;99042.97;252145;1145;115518;-72
2021/03/07 19:13:49;;;;;;;;;;;;;;;5.17;45.82;99038.87;251891;1146;115287;-71
2021/03/07 19:18:51;;;;;;;34.53;18.87;;;;;;;5.08;46.76;99042.72;252027;1146;101766;-71
2021/03/07 19:23:55;;;;;;;46.15;28.38;;;;;;;5.04;46.29;99048.19;251944;1146;114780;-72
2021/03/07 19:28:59;;;;;;;43.60;23.50;;;;;;;4.97;46.71;99040.51;251987;1153;114901;-69
2021/03/07 19:34:01;;;;;;;42.83;24.30;;;;;;;4.91;46.77;99037.25;251952;1146;115284;-71
2021/03/07 19:39:09;;;;;;;47.60;25.17;;;;;;;4.87;46.95;99044.42;250812;1144;115380;-71
2021/03/07 19:44:18;;;;;;;41.20;24.18;;;;;;;4.84;46.95;99038.41;251928;1146;115283;-71
2021/03/07 19:49:39;;;;;;;40.45;23.83;;;;;;;4.80;47.00;99040.31;251995;1146;115611;-71
2021/03/07 19:54:53;;;;;;;42.68;24.05;;;;;;;4.77;46.99;99039.56;252053;1146;114881;-72
2021/03/07 19:59:56;;;;;;;47.03;23.73;;;;;;;4.70;47.37;99038.94;251958;1146;115356;-70
2021/03/07 20:05:17;;;;;;;38.80;22.60;;;;;;;4.63;47.61;99035.68;252025;1146;114768;-68
2021/03/07 20:10:20;;;;;;;41.45;22.73;;;;;;;4.55;47.56;99037.72;252084;1146;114991;-70
2021/03/07 20:15:25;;;;;;;44.40;26.38;;;;;;;4.49;47.62;99036.20;251994;1146;115291;-69
2021/03/07 20:20:28;;;;;;;38.68;22.08;;;;;;;4.47;47.93;99039.80;251974;1146;114705;-70
2021/03/07 20:25:34;;;;;;;38.08;22.45;;;;;;;4.43;48.25;99039.06;251742;1146;114739;-69
2021/03/07 20:30:37;;;;;;;35.37;21.10;;;;;;;4.42;47.98;99044.40;250991;1152;114891;-69
2021/03/07 20:35:40;;;;;;;35.50;21.43;;;;;;;4.37;48.40;99048.96;251999;1146;114784;-68
2021/03/07 20:40:45;;;;;;;;;;;;;;;4.33;48.27;99042.95;251994;1153;114662;-73
2021/03/07 20:45:51;;;;;;;38.80;21.40;;;;;;;4.24;47.69;99044.13;251996;1146;101126;-76
2021/03/07 20:51:07;;;;;;;41.75;22.53;;;;;;;4.20;48.64;99049.58;252113;1146;115317;-69
2021/03/07 20:56:15;;;;;;;40.55;24.08;;;;;;;4.15;48.70;99047.12;251228;1146;115048;-68
2021/03/07 21:01:18;;;;;;;41.93;24.33;;;;;;;4.12;49.03;99046.37;252039;1145;114932;-68
2021/03/07 21:06:20;;;;;;;40.50;23.57;;;;;;;4.07;49.05;99051.78;252002;1145;115193;-68
2021/03/07 21:11:24;;;;;;;44.83;23.87;;;;;;;4.03;48.99;99044.91;252012;1152;115102;-67
2021/03/07 21:16:29;;;;;;;42.63;24.03;;;;;;;3.98;49.40;99047.72;252082;1145;115274;-69
2021/03/07 21:21:32;;;;;;;44.50;24.35;;;;;;;3.95;49.44;99041.70;252107;1152;114899;-68
2021/03/07 21:26:35;;;;;;;45.55;25.80;;;;;;;3.94;49.57;99047.85;251987;1146;115034;-67
2021/03/07 21:31:37;;;;;;;41.78;26.00;;;;;;;3.89;49.60;99049.80;251964;1153;115450;-68
2021/03/07 21:36:40;;;;;;;44.60;26.23;;;;;;;3.84;49.78;99049.09;251898;1146;115013;-68
2021/03/07 21:41:42;;;;;;;43.23;25.83;;;;;;;3.78;49.92;99042.28;251860;1153;115938;-66
2021/03/07 21:46:45;;;;;;;44.53;26.00;;;;;;;3.74;50.04;99043.31;251991;1146;115261;-67
2021/03/07 21:51:48;;;;;;;44.83;26.33;;;;;;;3.72;50.03;99048.61;251979;1146;114896;-67
2021/03/07 21:56:50;;;;;;;43.17;26.10;;;;;;;3.69;50.24;99040.81;251960;1146;114614;-66
2021/03/07 22:01:53;;;;;;;46.23;25.25;;;;;;;3.62;50.14;99038.45;251930;1146;114823;-67
2021/03/07 22:06:55;;;;;;;43.37;25.87;;;;;;;3.55;50.31;99033.39;251978;1146;115305;-67
2021/03/07 22:11:59;;;;;;;47.55;26.60;;;;;;;3.50;50.58;99040.59;251901;1145;114843;-67
2021/03/07 22:17:15;;;;;;;47.68;24.78;;;;;;;3.50;50.53;99035.33;252019;1146;115200;-67
2021/03/07 22:22:17;;;;;;;46.15;26.33;;;;;;;3.46;50.72;99020.53;251941;1145;116018;-67
2021/03/07 22:27:20;;;;;;;44.15;26.70;;;;;;;3.44;50.84;99025.00;251924;1146;114687;-66
2021/03/07 22:32:23;;;;;;;53.23;28.18;;;;;;;3.44;51.16;99017.11;251974;1144;114968;-68
2021/03/07 22:37:25;;;;;;;51.20;27.20;;;;;;;3.37;51.00;99012.97;250716;1145;115171;-69
2021/03/07 22:42:28;;;;;;;42.75;25.25;;;;;;;3.34;51.34;99006.95;251945;1146;115016;-68
2021/03/07 22:47:30;;;;;;;54.50;30.48;;;;;;;3.30;51.40;99011.45;252039;1146;115278;-67
2021/03/07 22:52:33;;;;;;;50.58;28.63;;;;;;;3.32;51.72;99005.21;251888;1152;114814;-66
2021/03/07 22:57:35;;;;;;;60.47;30.90;;;;;;;3.33;51.56;99003.47;251921;1144;115039;-68
2021/03/07 23:02:37;;;;;;;65.37;35.03;;;;;;;3.34;51.70;98992.03;252121;1152;115168;-68
2021/03/07 23:07:40;;;;;;;53.53;33.13;;;;;;;3.35;51.87;98985.84;252051;1146;115005;-69
2021/03/07 23:12:43;;;;;;;55.88;33.35;;;;;;;3.31;51.97;98995.61;251331;1145;115679;-70
2021/03/07 23:17:46;;;;;;;64.73;36.50;;;;;;;3.25;52.02;98997.58;251993;1144;114879;-70
2021/03/07 23:22:52;;;;;;;65.93;35.35;;;;;;;3.18;52.13;98994.30;251734;1146;115038;-71
2021/03/07 23:27:56;;;;;;;60.33;32.93;;;;;;;3.19;52.25;98990.75;251481;1153;115035;-71
2021/03/07 23:32:59;;;;;;;74.43;37.17;;;;;;;3.16;52.22;98997.88;251946;1152;114902;-67
2021/03/07 23:38:02;;;;;;;69.65;35.95;;;;;;;3.16;52.54;98989.98;251905;1152;114943;-69
2021/03/07 23:43:05;;;;;;;69.20;37.50;;;;;;;3.10;52.43;98991.07;251866;1146;115448;-70
2021/03/07 23:48:08;;;;;;;72.75;39.55;;;;;;;3.06;52.57;98992.09;251944;1144;115339;-71
2021/03/07 23:53:10;;;;;;;73.30;40.57;;;;;;;3.00;52.67;99000.16;251930;1146;115277;-71
2021/03/07 23:58:13;;;;;;;79.87;41.23;;;;;;;2.96;53.13;98996.77;251927;1144;114709;-70
